createdAt,value
2019-02-02T00:00:49.550Z,78.0
2019-02-02T00:01:50.828Z,77.8
2019-02-02T00:02:52.108Z,73.6
2019-02-02T00:03:54.179Z,74.6
2019-02-02T00:04:55.095Z,76.6
2019-02-02T00:05:55.943Z,73.4
2019-02-02T00:06:56.653Z,75.6
2019-02-02T00:07:57.696Z,76.4
2019-02-02T00:08:58.621Z,73.6
2019-02-02T00:09:59.338Z,74.9
2019-02-02T00:11:00.090Z,75.4
2019-02-02T00:12:01.342Z,72.8
2019-02-02T00:13:02.088Z,77.1
2019-02-02T00:14:02.877Z,73.5
2019-02-02T00:15:03.614Z,71.4
2019-02-02T00:16:04.376Z,76.2
2019-02-02T00:17:05.125Z,73.2
2019-02-02T00:18:05.922Z,76.6
2019-02-02T00:19:06.731Z,74.9
2019-02-02T00:20:07.511Z,69.9
2019-02-02T00:21:08.241Z,77.8
2019-02-02T00:22:08.993Z,75.5
2019-02-02T00:23:09.762Z,74.4
2019-02-02T00:24:10.636Z,72.8
2019-02-02T00:25:11.455Z,69.1
2019-02-02T00:26:12.185Z,67.7
2019-02-02T00:27:13.028Z,67.8
2019-02-02T00:28:13.750Z,65.1
2019-02-02T00:29:14.589Z,71.1
2019-02-02T00:30:15.332Z,70.2
2019-02-02T00:31:16.066Z,73.8
2019-02-02T00:32:16.902Z,71.6
2019-02-02T00:33:17.632Z,72.5
2019-02-02T00:34:18.467Z,71.8
2019-02-02T00:35:19.198Z,69.3
2019-02-02T00:36:19.915Z,72.9
2019-02-02T00:37:20.619Z,71.5
2019-02-02T00:38:21.333Z,67.4
2019-02-02T00:39:22.039Z,67.8
2019-02-02T00:40:22.753Z,71.4
2019-02-02T00:41:23.449Z,70.3
2019-02-02T00:42:24.173Z,70.1
2019-02-02T00:43:24.866Z,70.6
2019-02-02T00:44:25.570Z,74.0
2019-02-02T00:45:26.288Z,72.0
2019-02-02T00:46:26.997Z,73.5
2019-02-02T00:47:27.692Z,72.9
2019-02-02T00:48:28.392Z,72.3
2019-02-02T00:49:29.206Z,72.1
2019-02-02T00:50:30.051Z,71.3
2019-02-02T00:51:30.745Z,70.1
2019-02-02T00:52:31.452Z,73.3
2019-02-02T00:53:32.165Z,73.9
2019-02-02T00:54:33.237Z,71.8
2019-02-02T00:55:33.938Z,75.6
2019-02-02T00:56:34.643Z,74.3
2019-02-02T00:57:35.343Z,74.1
2019-02-02T00:58:36.095Z,71.4
2019-02-02T00:59:36.894Z,70.0
2019-02-02T01:00:37.596Z,70.3
2019-02-02T01:01:38.316Z,69.7
2019-02-02T01:02:38.998Z,75.4
2019-02-02T01:03:39.702Z,74.5
2019-02-02T01:04:40.474Z,70.3
2019-02-02T01:05:41.178Z,72.1
2019-02-02T01:06:41.877Z,70.5
2019-02-02T01:07:42.587Z,73.6
2019-02-02T01:08:43.283Z,72.4
2019-02-02T01:09:43.995Z,71.8
2019-02-02T01:10:44.701Z,70.2
2019-02-02T01:11:45.419Z,68.9
2019-02-02T01:12:46.131Z,68.2
2019-02-02T01:13:46.828Z,70.8
2019-02-02T01:14:47.628Z,74.8
2019-02-02T01:15:48.341Z,73.2
2019-02-02T01:16:49.045Z,70.3
2019-02-02T01:17:49.746Z,68.6
2019-02-02T01:18:50.462Z,67.2
2019-02-02T01:19:51.159Z,71.7
2019-02-02T01:20:51.870Z,69.7
2019-02-02T01:21:52.570Z,70.3
2019-02-02T01:22:53.273Z,65.6
2019-02-02T01:23:53.971Z,66.7
2019-02-02T01:24:54.682Z,70.0
2019-02-02T01:25:55.683Z,69.6
2019-02-02T01:26:56.383Z,72.6
2019-02-02T01:28:05.017Z,64.9
2019-02-02T01:28:58.057Z,65.1
2019-02-02T01:29:58.765Z,67.8
2019-02-02T01:30:59.734Z,72.2
2019-02-02T01:32:00.448Z,69.0
2019-02-02T01:33:01.251Z,68.7
2019-02-02T01:34:01.959Z,65.4
2019-02-02T01:35:02.908Z,69.7
2019-02-02T01:36:03.627Z,68.5
2019-02-02T01:37:04.336Z,70.8
2019-02-02T01:38:05.243Z,71.4
2019-02-02T01:39:05.788Z,72.8
2019-02-02T01:40:06.494Z,70.3
2019-02-02T01:41:07.211Z,69.0
2019-02-02T01:42:07.923Z,68.9
2019-02-02T01:43:08.619Z,66.0
2019-02-02T01:44:09.329Z,66.6
2019-02-02T01:45:10.047Z,69.6
2019-02-02T01:46:10.753Z,72.6
2019-02-02T01:47:11.457Z,70.6
2019-02-02T01:48:12.160Z,75.2
2019-02-02T01:49:12.869Z,74.1
2019-02-02T01:50:13.836Z,73.2
2019-02-02T01:51:14.547Z,67.4
2019-02-02T01:52:15.270Z,68.1
2019-02-02T01:53:16.068Z,69.5
2019-02-02T01:54:16.791Z,70.2
2019-02-02T01:55:17.477Z,67.1
2019-02-02T01:56:18.183Z,66.4
2019-02-02T01:57:19.128Z,73.5
2019-02-02T01:58:19.827Z,71.9
2019-02-02T01:59:20.530Z,65.4
2019-02-02T02:00:21.238Z,69.8
2019-02-02T02:01:21.947Z,70.3
2019-02-02T02:02:22.646Z,71.1
2019-02-02T02:03:23.351Z,75.4
2019-02-02T02:04:24.057Z,72.6
2019-02-02T02:05:24.767Z,70.8
2019-02-02T02:06:25.477Z,71.0
2019-02-02T02:07:26.191Z,74.0
2019-02-02T02:08:26.891Z,72.6
2019-02-02T02:09:27.605Z,72.3
2019-02-02T02:10:28.306Z,66.6
2019-02-02T02:11:29.012Z,68.0
2019-02-02T02:12:29.719Z,68.2
2019-02-02T02:13:30.437Z,67.6
2019-02-02T02:14:31.333Z,68.8
2019-02-02T02:15:32.049Z,72.3
2019-02-02T02:16:32.749Z,69.2
2019-02-02T02:17:33.454Z,67.5
2019-02-02T02:18:34.156Z,70.7
2019-02-02T02:19:34.909Z,69.0
2019-02-02T02:20:35.623Z,69.9
2019-02-02T02:21:36.348Z,75.6
2019-02-02T02:22:41.265Z,69.8
2019-02-02T02:23:37.754Z,69.0
2019-02-02T02:24:38.463Z,71.8
2019-02-02T02:25:39.771Z,70.4
2019-02-02T02:26:40.479Z,66.5
2019-02-02T02:27:41.314Z,65.8
2019-02-02T02:28:42.129Z,70.1
2019-02-02T02:29:43.188Z,68.8
2019-02-02T02:30:47.297Z,73.0
2019-02-02T02:31:45.011Z,69.9
2019-02-02T02:32:45.737Z,67.1
2019-02-02T02:33:46.486Z,68.4
2019-02-02T02:34:47.451Z,68.8
2019-02-02T02:35:48.148Z,72.0
2019-02-02T02:36:49.004Z,69.4
2019-02-02T02:37:49.706Z,68.2
2019-02-02T02:38:50.412Z,67.8
2019-02-02T02:39:51.127Z,69.2
2019-02-02T02:40:51.824Z,66.0
2019-02-02T02:41:52.582Z,65.5
2019-02-02T02:42:53.298Z,64.0
2019-02-02T02:43:54.003Z,67.1
2019-02-02T02:44:54.965Z,69.9
2019-02-02T02:45:55.667Z,70.1
2019-02-02T02:46:56.624Z,68.8
2019-02-02T02:47:57.338Z,70.2
2019-02-02T02:48:58.058Z,67.4
2019-02-02T02:49:59.012Z,68.9
2019-02-02T02:50:59.704Z,69.9
2019-02-02T02:52:00.817Z,67.6
2019-02-02T02:53:01.513Z,66.5
2019-02-02T02:54:02.226Z,67.4
2019-02-02T02:55:02.935Z,68.8
2019-02-02T02:56:03.672Z,69.4
2019-02-02T02:57:04.367Z,68.5
2019-02-02T02:58:05.085Z,67.8
2019-02-02T02:59:05.811Z,67.9
2019-02-02T03:00:06.506Z,67.5
2019-02-02T03:01:07.218Z,67.7
2019-02-02T03:02:07.929Z,67.3
2019-02-02T03:03:08.637Z,70.8
2019-02-02T03:04:09.332Z,70.4
2019-02-02T03:05:10.036Z,71.6
2019-02-02T03:06:10.745Z,73.4
2019-02-02T03:07:11.454Z,68.9
2019-02-02T03:08:12.156Z,68.8
2019-02-02T03:09:12.860Z,70.4
2019-02-02T03:10:13.564Z,70.7
2019-02-02T03:11:14.254Z,65.4
2019-02-02T03:12:14.966Z,64.6
2019-02-02T03:13:15.768Z,64.5
2019-02-02T03:14:16.465Z,64.2
2019-02-02T03:15:17.171Z,66.0
2019-02-02T03:16:17.874Z,65.8
2019-02-02T03:17:18.584Z,64.4
2019-02-02T03:18:19.419Z,67.8
2019-02-02T03:19:20.465Z,65.4
2019-02-02T03:20:21.184Z,65.0
2019-02-02T03:21:21.876Z,65.5
2019-02-02T03:22:22.689Z,66.6
2019-02-02T03:23:23.421Z,66.4
2019-02-02T03:24:24.125Z,68.6
2019-02-02T03:25:24.846Z,70.4
2019-02-02T03:26:25.543Z,67.0
2019-02-02T03:27:26.297Z,67.2
2019-02-02T03:28:27.249Z,71.3
2019-02-02T03:29:27.956Z,73.4
2019-02-02T03:30:28.665Z,70.1
2019-02-02T03:31:29.362Z,73.8
2019-02-02T03:32:30.118Z,72.8
2019-02-02T03:33:30.849Z,71.5
2019-02-02T03:34:31.546Z,69.1
2019-02-02T03:35:32.254Z,67.5
2019-02-02T03:36:32.962Z,69.3
2019-02-02T03:37:33.728Z,67.9
2019-02-02T03:38:34.433Z,70.8
2019-02-02T03:39:35.146Z,69.8
2019-02-02T03:40:35.902Z,68.4
2019-02-02T03:41:36.635Z,74.5
2019-02-02T03:42:37.869Z,71.9
2019-02-02T03:43:38.597Z,68.4
2019-02-02T03:44:39.530Z,72.3
2019-02-02T03:45:41.083Z,72.9
2019-02-02T03:46:40.983Z,70.9
2019-02-02T03:47:41.697Z,68.6
2019-02-02T03:48:42.404Z,65.7
2019-02-02T03:49:43.117Z,68.3
2019-02-02T03:50:43.877Z,73.5
2019-02-02T03:51:44.576Z,74.5
2019-02-02T03:52:45.307Z,73.3
2019-02-02T03:53:46.014Z,75.4
2019-02-02T03:54:46.730Z,71.2
2019-02-02T03:55:47.437Z,70.4
2019-02-02T03:56:48.394Z,72.3
2019-02-02T03:57:49.105Z,70.9
2019-02-02T03:58:49.814Z,68.7
2019-02-02T03:59:50.519Z,67.2
2019-02-02T04:00:51.217Z,71.1
2019-02-02T04:01:51.916Z,70.1
2019-02-02T04:02:52.617Z,67.9
2019-02-02T04:03:53.316Z,72.5
2019-02-02T04:04:54.290Z,72.2
2019-02-02T04:05:55.000Z,71.2
2019-02-02T04:06:55.697Z,74.4
2019-02-02T04:07:56.738Z,69.3
2019-02-02T04:08:57.491Z,72.7
2019-02-02T04:09:58.237Z,72.2
2019-02-02T04:10:58.903Z,74.0
2019-02-02T04:11:59.607Z,74.4
2019-02-02T04:13:00.305Z,75.0
2019-02-02T04:14:01.013Z,74.3
2019-02-02T04:15:01.719Z,76.3
2019-02-02T04:16:02.424Z,76.7
2019-02-02T04:17:03.129Z,73.2
2019-02-02T04:18:03.833Z,74.3
2019-02-02T04:19:04.547Z,76.9
2019-02-02T04:20:05.259Z,72.0
2019-02-02T04:21:05.961Z,71.4
2019-02-02T04:22:06.664Z,71.6
2019-02-02T04:23:07.375Z,74.3
2019-02-02T04:24:08.070Z,77.0
2019-02-02T04:25:08.827Z,71.3
2019-02-02T04:26:09.773Z,72.5
2019-02-02T04:27:10.561Z,72.5
2019-02-02T04:28:11.274Z,73.3
2019-02-02T04:29:17.848Z,70.2
2019-02-02T04:30:13.120Z,68.5
2019-02-02T04:31:13.918Z,74.0
2019-02-02T04:32:14.637Z,71.7
2019-02-02T04:33:15.564Z,77.0
2019-02-02T04:34:17.727Z,74.8
2019-02-02T04:35:18.579Z,76.5
2019-02-02T04:36:19.785Z,72.2
2019-02-02T04:37:20.639Z,74.4
2019-02-02T04:38:21.346Z,73.6
2019-02-02T04:39:22.058Z,76.5
2019-02-02T04:40:22.758Z,80.3
2019-02-02T04:41:23.471Z,81.1
2019-02-02T04:42:24.166Z,78.0
2019-02-02T04:43:24.870Z,77.3
2019-02-02T04:44:25.583Z,76.4
2019-02-02T04:45:26.293Z,79.7
2019-02-02T04:46:26.991Z,73.9
2019-02-02T04:47:27.945Z,76.2
2019-02-02T04:48:28.751Z,78.5
2019-02-02T04:49:29.461Z,77.6
2019-02-02T04:50:30.157Z,72.2
2019-02-02T04:51:30.876Z,72.9
2019-02-02T04:52:31.577Z,76.1
2019-02-02T04:53:32.415Z,77.7
2019-02-02T04:54:32.981Z,77.1
2019-02-02T04:55:33.690Z,76.1
2019-02-02T04:56:34.390Z,80.8
2019-02-02T04:57:35.190Z,79.7
2019-02-02T04:58:35.888Z,78.9
2019-02-02T04:59:36.600Z,81.7
2019-02-02T05:00:37.303Z,75.0
2019-02-02T05:01:38.116Z,75.5
2019-02-02T05:02:38.977Z,78.5
2019-02-02T05:03:39.698Z,78.4
2019-02-02T05:04:40.576Z,76.3
2019-02-02T05:05:41.400Z,80.3
2019-02-02T05:06:42.345Z,78.2
2019-02-02T05:07:43.293Z,75.4
2019-02-02T05:08:43.996Z,76.3
2019-02-02T05:09:44.699Z,76.9
2019-02-02T05:10:45.425Z,79.2
2019-02-02T05:11:46.112Z,83.9
2019-02-02T05:12:46.826Z,80.3
2019-02-02T05:13:47.528Z,76.1
2019-02-02T05:14:48.233Z,78.7
2019-02-02T05:15:48.987Z,82.9
2019-02-02T05:16:49.700Z,79.7
2019-02-02T05:17:50.414Z,76.0
2019-02-02T05:18:51.108Z,76.7
2019-02-02T05:19:51.811Z,77.7
2019-02-02T05:20:52.513Z,78.2
2019-02-02T05:21:53.469Z,77.3
2019-02-02T05:22:54.167Z,75.6
2019-02-02T05:23:54.879Z,78.2
2019-02-02T05:24:55.582Z,80.8
2019-02-02T05:25:56.294Z,77.6
2019-02-02T05:26:57.048Z,77.9
2019-02-02T05:27:57.761Z,75.2
2019-02-02T05:28:58.464Z,73.3
2019-02-02T05:29:59.170Z,77.7
2019-02-02T05:31:00.126Z,75.5
2019-02-02T05:32:00.830Z,81.9
2019-02-02T05:33:01.784Z,78.9
2019-02-02T05:34:02.493Z,78.8
2019-02-02T05:35:03.198Z,81.9
2019-02-02T05:36:03.898Z,78.8
2019-02-02T05:37:04.596Z,80.3
2019-02-02T05:38:05.304Z,75.7
2019-02-02T05:39:06.018Z,74.2
2019-02-02T05:40:06.717Z,74.5
2019-02-02T05:41:07.413Z,78.0
2019-02-02T05:42:08.112Z,76.3
2019-02-02T05:43:08.822Z,77.4
2019-02-02T05:44:09.525Z,75.2
2019-02-02T05:45:10.222Z,80.4
2019-02-02T05:46:10.923Z,77.5
2019-02-02T05:47:11.626Z,78.9
2019-02-02T05:48:12.393Z,77.7
2019-02-02T05:49:13.081Z,77.8
2019-02-02T05:50:13.791Z,73.3
2019-02-02T05:51:14.496Z,83.6
2019-02-02T05:52:15.197Z,78.2
2019-02-02T05:53:15.909Z,76.9
2019-02-02T05:54:16.764Z,79.5
2019-02-02T05:55:17.521Z,76.1
2019-02-02T05:56:18.175Z,77.3
2019-02-02T05:57:18.879Z,78.5
2019-02-02T05:58:19.589Z,77.1
2019-02-02T05:59:20.294Z,76.1
2019-02-02T06:00:21.001Z,76.0
2019-02-02T06:01:21.715Z,74.3
2019-02-02T06:02:22.667Z,76.7
2019-02-02T06:03:23.366Z,73.9
2019-02-02T06:04:24.060Z,76.0
2019-02-02T06:05:24.774Z,76.8
2019-02-02T06:06:25.576Z,78.2
2019-02-02T06:07:26.277Z,77.3
2019-02-02T06:08:27.072Z,76.3
2019-02-02T06:09:28.035Z,76.0
2019-02-02T06:10:28.735Z,76.3
2019-02-02T06:11:29.496Z,76.4
2019-02-02T06:12:30.197Z,78.6
2019-02-02T06:13:30.909Z,80.3
2019-02-02T06:14:31.613Z,78.0
2019-02-02T06:15:32.321Z,74.5
2019-02-02T06:16:33.142Z,78.0
2019-02-02T06:17:34.091Z,77.3
2019-02-02T06:18:34.812Z,75.8
2019-02-02T06:19:35.510Z,77.6
2019-02-02T06:20:36.216Z,78.7
2019-02-02T06:21:36.993Z,79.1
2019-02-02T06:22:37.692Z,78.8
2019-02-02T06:23:38.405Z,77.8
2019-02-02T06:24:39.115Z,76.2
2019-02-02T06:25:39.822Z,76.9
2019-02-02T06:26:40.527Z,83.7
2019-02-02T06:27:41.240Z,82.6
2019-02-02T06:28:42.002Z,78.6
2019-02-02T06:29:42.710Z,84.7
2019-02-02T06:30:43.423Z,78.8
2019-02-02T06:31:44.150Z,81.8
2019-02-02T06:32:44.829Z,80.7
2019-02-02T06:33:45.531Z,82.6
2019-02-02T06:34:46.489Z,81.5
2019-02-02T06:35:47.201Z,75.8
2019-02-02T06:36:47.915Z,78.1
2019-02-02T06:37:48.612Z,81.4
2019-02-02T06:38:49.568Z,76.1
2019-02-02T06:39:50.277Z,78.8
2019-02-02T06:40:50.988Z,80.0
2019-02-02T06:41:51.692Z,81.1
2019-02-02T06:42:52.400Z,76.9
2019-02-02T06:43:53.106Z,78.9
2019-02-02T06:44:53.815Z,77.2
2019-02-02T06:45:54.550Z,77.3
2019-02-02T06:46:55.244Z,81.5
2019-02-02T06:47:56.201Z,77.6
2019-02-02T06:48:56.897Z,77.0
2019-02-02T06:49:57.608Z,77.0
2019-02-02T06:50:58.306Z,75.9
2019-02-02T06:51:59.015Z,74.5
2019-02-02T06:52:59.973Z,76.1
2019-02-02T06:54:00.938Z,76.5
2019-02-02T06:55:01.680Z,76.8
2019-02-02T06:56:02.397Z,76.4
2019-02-02T06:57:03.108Z,70.9
2019-02-02T06:58:03.854Z,75.0
2019-02-02T06:59:04.515Z,74.7
2019-02-02T07:00:15.800Z,75.6
2019-02-02T07:01:06.238Z,74.0
2019-02-02T07:02:06.946Z,73.9
2019-02-02T07:03:07.651Z,74.5
2019-02-02T07:04:08.358Z,75.7
2019-02-02T07:05:09.070Z,76.6
2019-02-02T07:06:09.789Z,78.3
2019-02-02T07:07:10.499Z,77.0
2019-02-02T07:08:11.198Z,72.9
2019-02-02T07:09:11.917Z,73.3
2019-02-02T07:10:12.624Z,75.5
2019-02-02T07:11:13.350Z,73.4
2019-02-02T07:12:14.060Z,73.2
2019-02-02T07:13:14.760Z,75.1
2019-02-02T07:14:15.470Z,77.4
2019-02-02T07:15:16.212Z,74.7
2019-02-02T07:16:16.922Z,74.3
2019-02-02T07:17:17.731Z,75.0
2019-02-02T07:18:18.445Z,74.4
2019-02-02T07:19:19.156Z,77.7
2019-02-02T07:20:19.853Z,76.5
2019-02-02T07:21:20.824Z,71.2
2019-02-02T07:22:21.512Z,75.0
2019-02-02T07:23:22.311Z,77.5
2019-02-02T07:24:23.026Z,76.0
2019-02-02T07:25:23.725Z,75.6
2019-02-02T07:26:24.444Z,76.9
2019-02-02T07:27:25.150Z,71.8
2019-02-02T07:28:25.866Z,76.8
2019-02-02T07:29:26.582Z,76.8
2019-02-02T07:30:29.031Z,76.4
2019-02-02T07:31:28.000Z,76.0
2019-02-02T07:32:28.712Z,78.0
2019-02-02T07:33:29.416Z,75.6
2019-02-02T07:34:30.148Z,77.8
2019-02-02T07:35:30.857Z,76.0
2019-02-02T07:36:31.562Z,73.8
2019-02-02T07:37:32.260Z,74.3
2019-02-02T07:38:32.972Z,73.7
2019-02-02T07:39:33.676Z,72.0
2019-02-02T07:40:34.387Z,75.6
2019-02-02T07:41:35.094Z,73.1
2019-02-02T07:42:36.071Z,76.9
2019-02-02T07:43:36.777Z,75.0
2019-02-02T07:44:37.484Z,73.9
2019-02-02T07:45:38.195Z,75.1
2019-02-02T07:46:38.901Z,78.1
2019-02-02T07:47:39.599Z,75.4
2019-02-02T07:48:40.335Z,75.9
2019-02-02T07:49:41.042Z,77.6
2019-02-02T07:50:41.748Z,75.2
2019-02-02T07:51:42.467Z,75.4
2019-02-02T07:52:43.175Z,72.8
2019-02-02T07:53:43.886Z,74.0
2019-02-02T07:54:44.594Z,74.6
2019-02-02T07:55:45.316Z,74.7
2019-02-02T07:56:46.035Z,74.8
2019-02-02T07:57:46.735Z,74.5
2019-02-02T07:58:47.704Z,74.6
2019-02-02T07:59:48.407Z,75.1
2019-02-02T08:00:49.112Z,74.0
2019-02-02T08:01:49.835Z,74.2
2019-02-02T08:02:50.551Z,73.2
2019-02-02T08:03:51.264Z,73.9
2019-02-02T08:04:51.973Z,75.2
2019-02-02T08:05:52.685Z,73.9
2019-02-02T08:06:53.390Z,72.3
2019-02-02T08:07:54.098Z,72.4
2019-02-02T08:08:54.964Z,74.5
2019-02-02T08:09:55.678Z,77.3
2019-02-02T08:10:56.661Z,75.8
2019-02-02T08:11:57.355Z,76.3
2019-02-02T08:12:58.059Z,73.5
2019-02-02T08:13:58.770Z,72.7
2019-02-02T08:14:59.532Z,74.1
2019-02-02T08:16:00.251Z,74.4
2019-02-02T08:17:00.948Z,72.7
2019-02-02T08:18:01.662Z,74.5
2019-02-02T08:19:02.632Z,76.5
2019-02-02T08:20:03.433Z,72.9
2019-02-02T08:21:04.144Z,72.6
2019-02-02T08:22:04.857Z,70.4
2019-02-02T08:23:05.562Z,68.3
2019-02-02T08:24:06.269Z,74.1
2019-02-02T08:25:06.998Z,70.2
2019-02-02T08:26:07.700Z,73.8
2019-02-02T08:27:08.418Z,68.7
2019-02-02T08:28:09.146Z,69.7
2019-02-02T08:29:09.865Z,69.2
2019-02-02T08:30:10.567Z,69.9
2019-02-02T08:31:11.581Z,67.6
2019-02-02T08:32:12.292Z,69.0
2019-02-02T08:33:12.995Z,70.4
2019-02-02T08:34:13.697Z,70.2
2019-02-02T08:35:15.198Z,66.2
2019-02-02T08:36:15.897Z,65.6
2019-02-02T08:37:16.604Z,64.3
2019-02-02T08:38:17.328Z,68.0
2019-02-02T08:39:28.712Z,65.3
2019-02-02T08:40:18.735Z,66.2
2019-02-02T08:41:19.454Z,68.3
2019-02-02T08:42:20.167Z,65.5
2019-02-02T08:43:20.880Z,67.5
2019-02-02T08:44:21.590Z,66.8
2019-02-02T08:45:22.328Z,65.5
2019-02-02T08:46:23.123Z,67.3
2019-02-02T08:47:23.715Z,68.0
2019-02-02T08:48:24.435Z,66.0
2019-02-02T08:49:25.156Z,66.7
2019-02-02T08:50:25.872Z,64.3
2019-02-02T08:51:26.586Z,64.7
2019-02-02T08:52:27.301Z,64.0
2019-02-02T08:53:28.014Z,65.4
2019-02-02T08:54:28.723Z,65.5
2019-02-02T08:55:29.439Z,63.2
2019-02-02T08:56:30.200Z,64.6
2019-02-02T08:57:30.922Z,63.6
2019-02-02T08:58:31.568Z,63.9
2019-02-02T08:59:32.272Z,61.0
2019-02-02T09:00:32.997Z,63.1
2019-02-02T09:01:33.715Z,61.5
2019-02-02T09:02:34.429Z,62.0
2019-02-02T09:03:35.133Z,66.8
2019-02-02T09:04:35.863Z,62.5
2019-02-02T09:05:36.568Z,62.8
2019-02-02T09:06:39.216Z,65.9
2019-02-02T09:07:38.445Z,64.8
2019-02-02T09:08:38.952Z,66.3
2019-02-02T09:09:39.758Z,65.9
2019-02-02T09:10:40.466Z,66.6
2019-02-02T09:11:41.186Z,65.3
2019-02-02T09:12:41.900Z,64.8
2019-02-02T09:13:42.616Z,65.6
2019-02-02T09:14:43.332Z,63.3
2019-02-02T09:15:44.036Z,63.2
2019-02-02T09:16:44.750Z,62.1
2019-02-02T09:17:45.467Z,63.4
2019-02-02T09:18:46.184Z,64.1
2019-02-02T09:19:46.886Z,63.0
2019-02-02T09:20:47.596Z,64.1
2019-02-02T09:21:48.312Z,64.3
2019-02-02T09:22:49.022Z,62.9
2019-02-02T09:23:49.726Z,64.5
2019-02-02T09:24:51.997Z,65.8
2019-02-02T09:25:51.434Z,64.9
2019-02-02T09:26:52.141Z,61.3
2019-02-02T09:27:52.853Z,62.2
2019-02-02T09:28:53.559Z,61.5
2019-02-02T09:29:54.267Z,60.8
2019-02-02T09:30:54.982Z,61.3
2019-02-02T09:31:55.733Z,63.5
2019-02-02T09:32:56.453Z,61.1
2019-02-02T09:33:57.167Z,59.4
2019-02-02T09:34:57.883Z,60.4
2019-02-02T09:35:58.583Z,61.3
2019-02-02T09:36:59.298Z,60.0
2019-02-02T09:38:00.000Z,58.7
2019-02-02T09:39:00.724Z,59.7
2019-02-02T09:40:01.427Z,59.1
2019-02-02T09:41:02.141Z,59.8
2019-02-02T09:42:02.853Z,60.4
2019-02-02T09:43:03.719Z,61.0
2019-02-02T09:44:04.327Z,59.3
2019-02-02T09:45:05.286Z,60.5
2019-02-02T09:46:06.012Z,59.0
2019-02-02T09:47:06.718Z,59.9
2019-02-02T09:48:07.436Z,56.9
2019-02-02T09:49:08.148Z,59.6
2019-02-02T09:50:08.871Z,61.0
2019-02-02T09:51:09.588Z,60.2
2019-02-02T09:52:10.305Z,59.1
2019-02-02T09:53:11.020Z,60.2
2019-02-02T09:54:11.748Z,59.3
2019-02-02T09:55:12.457Z,60.5
2019-02-02T09:56:13.171Z,60.7
2019-02-02T09:57:13.881Z,59.1
2019-02-02T09:58:14.592Z,56.7
2019-02-02T09:59:15.357Z,58.1
2019-02-02T10:00:16.063Z,57.9
2019-02-02T10:01:27.120Z,56.5
2019-02-02T10:02:17.488Z,56.5
2019-02-02T10:03:18.200Z,56.0
2019-02-02T10:04:19.084Z,53.5
2019-02-02T10:05:19.683Z,55.1
2019-02-02T10:06:20.408Z,54.4
2019-02-02T10:07:21.124Z,54.2
2019-02-02T10:08:21.832Z,57.0
2019-02-02T10:09:22.549Z,54.2
2019-02-02T10:10:23.513Z,56.1
2019-02-02T10:11:24.276Z,53.5
2019-02-02T10:12:24.971Z,54.3
2019-02-02T10:13:25.675Z,57.5
2019-02-02T10:14:26.406Z,54.5
2019-02-02T10:15:27.098Z,54.4
2019-02-02T10:16:27.861Z,55.5
2019-02-02T10:17:28.575Z,53.3
2019-02-02T10:18:29.287Z,55.2
2019-02-02T10:19:29.988Z,54.1
2019-02-02T10:20:30.702Z,54.5
2019-02-02T10:21:31.416Z,55.5
2019-02-02T10:22:32.242Z,55.6
2019-02-02T10:23:32.965Z,54.9
2019-02-02T10:24:33.679Z,54.5
2019-02-02T10:25:34.394Z,52.1
2019-02-02T10:26:35.105Z,53.0
2019-02-02T10:27:35.826Z,52.4
2019-02-02T10:28:36.541Z,53.1
2019-02-02T10:29:37.250Z,55.0
2019-02-02T10:30:37.973Z,54.7
2019-02-02T10:31:39.868Z,52.9
2019-02-02T10:32:39.390Z,52.6
2019-02-02T10:33:40.098Z,51.6
2019-02-02T10:34:40.912Z,55.4
2019-02-02T10:35:41.626Z,54.2
2019-02-02T10:36:42.339Z,52.6
2019-02-02T10:37:43.075Z,53.0
2019-02-02T10:38:43.766Z,53.1
2019-02-02T10:39:44.533Z,54.4
2019-02-02T10:40:45.250Z,51.6
2019-02-02T10:41:45.960Z,53.0
2019-02-02T10:42:46.669Z,52.7
2019-02-02T10:43:47.394Z,54.1
2019-02-02T10:44:48.103Z,53.0
2019-02-02T10:45:48.834Z,51.1
2019-02-02T10:46:49.538Z,51.6
2019-02-02T10:47:50.257Z,52.4
2019-02-02T10:48:50.977Z,50.7
2019-02-02T10:49:51.798Z,52.7
2019-02-02T10:50:52.399Z,53.2
2019-02-02T10:51:53.136Z,52.4
2019-02-02T10:52:53.834Z,50.7
2019-02-02T10:53:54.548Z,52.0
2019-02-02T10:54:55.262Z,54.0
2019-02-02T10:55:55.966Z,54.3
2019-02-02T10:56:56.788Z,52.5
2019-02-02T10:57:57.517Z,52.5
2019-02-02T10:58:58.203Z,54.4
2019-02-02T10:59:58.915Z,52.8
2019-02-02T11:00:59.644Z,54.0
2019-02-02T11:02:00.503Z,52.6
2019-02-02T11:03:01.207Z,52.8
2019-02-02T11:04:01.912Z,52.7
2019-02-02T11:05:02.629Z,53.5
2019-02-02T11:06:03.375Z,53.7
2019-02-02T11:07:04.179Z,53.2
2019-02-02T11:08:04.920Z,54.6
2019-02-02T11:09:05.589Z,52.8
2019-02-02T11:10:06.223Z,53.6
2019-02-02T11:11:06.925Z,55.3
2019-02-02T11:12:07.853Z,53.5
2019-02-02T11:13:08.529Z,54.9
2019-02-02T11:14:09.162Z,55.1
2019-02-02T11:15:09.991Z,51.8
2019-02-02T11:16:10.591Z,54.3
2019-02-02T11:17:11.297Z,54.7
2019-02-02T11:18:12.056Z,54.2
2019-02-02T11:19:12.834Z,55.5
2019-02-02T11:20:13.712Z,55.4
2019-02-02T11:21:14.519Z,54.8
2019-02-02T11:22:15.238Z,54.9
2019-02-02T11:23:15.919Z,55.4
2019-02-02T11:24:18.948Z,53.1
2019-02-02T11:25:17.434Z,53.7
2019-02-02T11:26:18.031Z,53.1
2019-02-02T11:27:18.801Z,55.8
2019-02-02T11:28:19.623Z,54.9
2019-02-02T11:29:20.264Z,53.7
2019-02-02T11:30:20.952Z,56.3
2019-02-02T11:31:21.632Z,53.7
2019-02-02T11:32:22.308Z,55.5
2019-02-02T11:33:23.031Z,56.1
2019-02-02T11:34:23.748Z,56.2
2019-02-02T11:35:24.467Z,56.1
2019-02-02T11:36:25.188Z,57.8
2019-02-02T11:37:25.903Z,54.8
2019-02-02T11:38:26.610Z,56.9
2019-02-02T11:39:27.487Z,56.8
2019-02-02T11:40:28.232Z,56.1
2019-02-02T11:41:28.963Z,58.1
2019-02-02T11:42:29.687Z,56.8
2019-02-02T11:43:30.396Z,57.5
2019-02-02T11:44:31.168Z,56.4
2019-02-02T11:45:31.877Z,56.2
2019-02-02T11:46:32.602Z,53.8
2019-02-02T11:47:33.308Z,57.5
2019-02-02T11:48:34.016Z,58.5
2019-02-02T11:49:34.733Z,54.7
2019-02-02T11:50:35.457Z,54.0
2019-02-02T11:51:36.215Z,56.3
2019-02-02T11:52:36.950Z,54.8
2019-02-02T11:53:37.674Z,55.5
2019-02-02T11:54:38.630Z,58.4
2019-02-02T11:55:39.344Z,55.6
2019-02-02T11:56:40.058Z,53.7
2019-02-02T11:57:40.763Z,56.1
2019-02-02T11:58:41.466Z,54.2
2019-02-02T11:59:42.173Z,55.1
2019-02-02T12:00:42.891Z,54.1
2019-02-02T12:01:43.607Z,54.8
2019-02-02T12:02:49.600Z,54.3
2019-02-02T12:03:45.027Z,54.4
2019-02-02T12:04:45.733Z,53.7
2019-02-02T12:05:46.558Z,53.5
2019-02-02T12:06:49.167Z,55.0
2019-02-02T12:07:48.230Z,54.3
2019-02-02T12:08:49.448Z,53.4
2019-02-02T12:09:49.665Z,54.3
2019-02-02T12:10:50.395Z,52.4
2019-02-02T12:11:51.103Z,53.6
2019-02-02T12:12:51.810Z,52.4
2019-02-02T12:13:53.311Z,52.8
2019-02-02T12:14:56.883Z,55.1
2019-02-02T12:15:55.117Z,53.7
2019-02-02T12:16:55.837Z,55.5
2019-02-02T12:17:56.551Z,56.0
2019-02-02T12:18:57.259Z,55.6
2019-02-02T12:19:57.984Z,53.9
2019-02-02T12:20:58.688Z,54.4
2019-02-02T12:21:59.417Z,57.0
2019-02-02T12:23:00.134Z,57.1
2019-02-02T12:24:12.762Z,53.4
2019-02-02T12:25:02.176Z,54.4
2019-02-02T12:26:02.282Z,54.1
2019-02-02T12:27:03.253Z,53.7
2019-02-02T12:28:04.011Z,54.8
2019-02-02T12:29:04.964Z,55.7
2019-02-02T12:30:05.672Z,57.1
2019-02-02T12:31:06.394Z,57.4
2019-02-02T12:32:07.209Z,56.3
2019-02-02T12:33:07.834Z,54.4
2019-02-02T12:34:08.545Z,54.8
2019-02-02T12:35:09.257Z,54.1
2019-02-02T12:36:09.970Z,55.6
2019-02-02T12:37:10.696Z,53.0
2019-02-02T12:38:11.413Z,51.4
2019-02-02T12:39:12.115Z,53.1
2019-02-02T12:40:12.838Z,55.7
2019-02-02T12:41:13.546Z,53.8
2019-02-02T12:42:14.261Z,51.9
2019-02-02T12:43:14.957Z,54.1
2019-02-02T12:44:15.719Z,52.5
2019-02-02T12:45:16.487Z,50.7
2019-02-02T12:46:17.205Z,50.0
2019-02-02T12:47:20.776Z,51.2
2019-02-02T12:48:19.075Z,50.9
2019-02-02T12:49:20.103Z,51.3
2019-02-02T12:50:21.094Z,51.4
2019-02-02T12:51:22.832Z,51.7
2019-02-02T12:52:25.515Z,51.4
2019-02-02T12:53:24.750Z,51.9
2019-02-02T12:54:25.875Z,51.3
2019-02-02T12:55:26.680Z,52.7
2019-02-02T12:56:27.519Z,50.4
2019-02-02T12:57:28.284Z,50.8
2019-02-02T12:58:29.054Z,53.0
2019-02-02T12:59:29.772Z,53.7
2019-02-02T13:00:30.481Z,49.7
2019-02-02T13:01:31.440Z,49.6
2019-02-02T13:02:38.231Z,51.4
2019-02-02T13:03:34.221Z,50.1
2019-02-02T13:04:34.943Z,52.7
2019-02-02T13:05:35.652Z,52.3
2019-02-02T13:06:36.425Z,51.1
2019-02-02T13:07:37.145Z,54.5
2019-02-02T13:08:37.857Z,55.9
2019-02-02T13:09:38.583Z,56.6
2019-02-02T13:10:39.299Z,56.5
2019-02-02T13:11:40.022Z,58.4
2019-02-02T13:12:40.723Z,56.2
2019-02-02T13:13:42.693Z,52.6
2019-02-02T13:14:42.203Z,52.8
2019-02-02T13:15:43.184Z,53.2
2019-02-02T13:16:43.882Z,53.1
2019-02-02T13:17:44.598Z,52.0
2019-02-02T13:18:45.316Z,52.7
2019-02-02T13:19:46.293Z,54.4
2019-02-02T13:20:46.997Z,53.6
2019-02-02T13:21:47.701Z,55.2
2019-02-02T13:22:48.421Z,53.7
2019-02-02T13:23:49.128Z,56.1
2019-02-02T13:24:49.854Z,55.8
2019-02-02T13:25:50.558Z,56.8
2019-02-02T13:26:51.279Z,56.8
2019-02-02T13:27:51.996Z,57.9
2019-02-02T13:28:55.202Z,58.9